Estación de El Carmen
Ultimos registro cada 15 minutos 50
| N° | Estación | Fecha / Hora | Temperatura | Humedad | Lluvia | Velocidad | Dirección | Radiación | Presion |
| 50 | El Carmen | 09-05-2026 12:15 | 12,8 | 77,8 | 0 | 1 | 140 | 496,9 | 975,2 |
| 49 | El Carmen | 09-05-2026 12:00 | 12,3 | 80,8 | 0 | 1,5 | 153 | 486,9 | 975,4 |
| 48 | El Carmen | 09-05-2026 11:45 | 11,7 | 82,4 | 0 | 1,5 | 147 | 473,1 | 975,3 |
| 47 | El Carmen | 09-05-2026 11:30 | 11,4 | 83,2 | 0 | 1,5 | 157 | 463,1 | 975,2 |
| 46 | El Carmen | 09-05-2026 11:15 | 11,2 | 85 | 0 | 1 | 153 | 446,9 | 975,2 |
| 45 | El Carmen | 09-05-2026 11:00 | 10,5 | 85,9 | 0 | 1 | 147 | 425,6 | 975,2 |
| 44 | El Carmen | 09-05-2026 10:45 | 10,3 | 85,7 | 0 | 0,5 | 159 | 403,1 | 975,2 |
| 43 | El Carmen | 09-05-2026 10:30 | 10,2 | 87,3 | 0 | 0,5 | 149 | 375,6 | 975,4 |
| 42 | El Carmen | 09-05-2026 10:15 | 9,2 | 87,7 | 0 | 0,5 | 168 | 354,4 | 975,6 |
| 41 | El Carmen | 09-05-2026 10:00 | 9 | 89,4 | 0 | 0 | 139 | 230,6 | 975,7 |
| 40 | El Carmen | 09-05-2026 09:45 | 9 | 89,7 | 0 | 0 | 147 | 228,1 | 975,7 |
| 39 | El Carmen | 09-05-2026 09:30 | 8,4 | 90,7 | 0 | 0 | 149 | 110,6 | 975,7 |
| 38 | El Carmen | 09-05-2026 09:15 | 8,2 | 91,3 | 0 | 0 | 164 | 91,9 | 975,8 |
| 37 | El Carmen | 09-05-2026 09:00 | 8,2 | 91,7 | 0 | 0 | 167 | 76,9 | 976,1 |
| 36 | El Carmen | 09-05-2026 08:45 | 7,9 | 92 | 0 | 0 | 170 | 61,9 | 976 |
| 35 | El Carmen | 09-05-2026 08:30 | 7,8 | 92,2 | 0 | 0 | 180 | 34,4 | 975,9 |
| 34 | El Carmen | 09-05-2026 08:15 | 7,7 | 92,7 | 0 | 0,5 | 164 | 20,6 | 975,9 |
| 33 | El Carmen | 09-05-2026 08:00 | 7,7 | 93,1 | 0 | 0 | 163 | 9,4 | 975,8 |
| 32 | El Carmen | 09-05-2026 07:45 | 7,8 | 93,4 | 0 | 0 | 166 | 1,9 | 975,9 |
| 31 | El Carmen | 09-05-2026 07:30 | 7,8 | 93,5 | 0 | 0,5 | 167 | 0,6 | 976 |
| 30 | El Carmen | 09-05-2026 07:15 | 7,9 | 93,5 | 0 | 0,5 | 170 | 0,6 | 975,9 |
| 29 | El Carmen | 09-05-2026 07:00 | 8 | 93,8 | 0 | 0,5 | 167 | 0,6 | 975,9 |
| 28 | El Carmen | 09-05-2026 06:45 | 8,2 | 93,9 | 0 | 0,5 | 164 | 0,6 | 975,9 |
| 27 | El Carmen | 09-05-2026 06:30 | 8,3 | 94,2 | 0 | 0,5 | 171 | 0,6 | 976 |
| 26 | El Carmen | 09-05-2026 06:15 | 8,3 | 94,4 | 0 | 0,5 | 173 | 0,6 | 976 |
| 25 | El Carmen | 09-05-2026 06:00 | 8,5 | 94,4 | 0 | 0,5 | 166 | 0,6 | 975,9 |
| 24 | El Carmen | 09-05-2026 05:45 | 8,5 | 94,4 | 0 | 0,5 | 161 | 0,6 | 975,7 |
| 23 | El Carmen | 09-05-2026 05:30 | 8,6 | 95 | 0 | 0,5 | 168 | 0,6 | 975,9 |
| 22 | El Carmen | 09-05-2026 05:15 | 8,6 | 95,4 | 0 | 0,5 | 168 | 0,6 | 975,8 |
| 21 | El Carmen | 09-05-2026 05:00 | 8,7 | 95,5 | 0 | 0,5 | 161 | 0,6 | 975,9 |
| 20 | El Carmen | 09-05-2026 04:45 | 8,8 | 95,5 | 0 | 1 | 164 | 0,6 | 975,9 |
| 19 | El Carmen | 09-05-2026 04:30 | 8,9 | 95,5 | 0 | 0,5 | 170 | 0,6 | 975,9 |
| 18 | El Carmen | 09-05-2026 04:15 | 8,9 | 95,3 | 0 | 1 | 163 | 0,6 | 976,1 |
| 17 | El Carmen | 09-05-2026 04:00 | 9,1 | 94,7 | 0 | 1 | 159 | 0,6 | 976,3 |
| 16 | El Carmen | 09-05-2026 03:45 | 9,3 | 94,3 | 0 | 0,5 | 160 | 0,6 | 976,3 |
| 15 | El Carmen | 09-05-2026 03:30 | 9,3 | 94,2 | 0 | 0,5 | 150 | 0,6 | 976,4 |
| 14 | El Carmen | 09-05-2026 03:15 | 9,4 | 93,8 | 0 | 0 | 147 | 0,6 | 976,5 |
| 13 | El Carmen | 09-05-2026 03:00 | 9,4 | 93,6 | 0 | 0,5 | 154 | 0,6 | 976,4 |
| 12 | El Carmen | 09-05-2026 02:45 | 9,4 | 94,1 | 0 | 0,5 | 143 | 0,6 | 976,4 |
| 11 | El Carmen | 09-05-2026 02:30 | 9,4 | 94,3 | 0 | 0,5 | 150 | 0,6 | 976,7 |
| 10 | El Carmen | 09-05-2026 02:15 | 9,5 | 94,2 | 0 | 1 | 153 | 0,6 | 976,8 |
| 9 | El Carmen | 09-05-2026 02:00 | 9,5 | 94,5 | 0 | 1,5 | 154 | 0,6 | 976,9 |
| 8 | El Carmen | 09-05-2026 01:45 | 9,5 | 94,7 | 0 | 0,5 | 150 | 0,6 | 976,9 |
| 7 | El Carmen | 09-05-2026 01:30 | 9,6 | 94,4 | 0 | 0,5 | 152 | 0,6 | 976,9 |
| 6 | El Carmen | 09-05-2026 01:15 | 9,7 | 94 | 0 | 0,5 | 154 | 0,6 | 976,8 |
| 5 | El Carmen | 09-05-2026 01:00 | 9,6 | 94 | 0 | 1 | 149 | 0,6 | 976,8 |
| 4 | El Carmen | 09-05-2026 00:45 | 9,6 | 94,4 | 0 | 1,5 | 153 | 0,6 | 976,9 |
| 3 | El Carmen | 09-05-2026 00:30 | 9,6 | 94,6 | 0 | 1 | 160 | 0,6 | 976,9 |
| 2 | El Carmen | 09-05-2026 00:15 | 9,7 | 94,2 | 0 | 1 | 161 | 0,6 | 976,6 |
| 1 | El Carmen | 09-05-2026 00:00 | 9,7 | 94,1 | 0 | 0,5 | 164 | 0,6 | 976,9 |